TimeMST,TemperatureF,Dew PointF,Humidity,Sea Level PressureIn,VisibilityMPH,Wind Direction,Wind SpeedMPH,Gust SpeedMPH,PrecipitationIn,Events,Conditions,WindDirDegrees,DateUTC
12:53 AM,30.0,25.0,82,30.25,10.0,WNW,13.8,-,N/A,,Partly Cloudy,300,2013-02-24 07:53:00
1:53 AM,30.0,24.1,79,30.26,10.0,NW,10.4,-,N/A,,Clear,310,2013-02-24 08:53:00
2:53 AM,28.9,24.1,82,30.26,10.0,NNW,12.7,-,N/A,,Clear,330,2013-02-24 09:53:00
3:53 AM,28.9,24.1,82,30.27,10.0,WNW,4.6,-,N/A,,Clear,300,2013-02-24 10:53:00
4:53 AM,28.4,23.0,80,30.22,10.0,West,10.4,-,N/A,,Clear,280,2013-02-24 11:53:00
5:53 AM,27.0,23.0,85,30.31,10.0,WNW,9.2,-,N/A,,Clear,290,2013-02-24 12:53:00
6:53 AM,26.1,23.0,88,30.33,10.0,NW,3.5,-,N/A,,Clear,320,2013-02-24 13:53:00
7:53 AM,26.1,21.9,84,30.35,10.0,WNW,4.6,-,N/A,,Clear,300,2013-02-24 14:53:00
8:53 AM,28.9,23.0,78,30.37,10.0,NW,5.8,-,N/A,,Clear,310,2013-02-24 15:53:00
9:53 AM,30.9,24.1,76,30.38,10.0,NW,10.4,-,N/A,,Clear,320,2013-02-24 16:53:00
10:53 AM,33.1,24.1,70,30.38,10.0,WNW,15.0,-,N/A,,Clear,300,2013-02-24 17:53:00
11:53 AM,37.0,26.1,65,30.37,10.0,NNW,11.5,21.9,N/A,,Clear,330,2013-02-24 18:53:00
12:53 PM,39.0,27.0,62,30.35,10.0,NNW,13.8,-,N/A,,Clear,330,2013-02-24 19:53:00
1:53 PM,39.9,25.0,55,30.34,10.0,WNW,13.8,-,N/A,,Clear,300,2013-02-24 20:53:00
2:53 PM,41.0,25.0,53,30.32,10.0,NW,10.4,-,N/A,,Clear,310,2013-02-24 21:53:00
3:53 PM,41.0,23.0,49,30.31,10.0,NW,9.2,-,N/A,,Partly Cloudy,310,2013-02-24 22:53:00
4:53 PM,42.1,21.9,45,30.31,10.0,NW,8.1,-,N/A,,Clear,310,2013-02-24 23:53:00
5:53 PM,41.0,21.9,47,30.31,10.0,WNW,5.8,-,N/A,,Clear,300,2013-02-25 00:53:00
6:53 PM,39.0,21.0,49,30.30,10.0,NNE,3.5,-,N/A,,Clear,30,2013-02-25 01:53:00
7:53 PM,34.0,23.0,64,30.31,10.0,SE,3.5,-,N/A,,Clear,130,2013-02-25 02:53:00
8:53 PM,33.1,23.0,66,30.30,10.0,SE,5.8,-,N/A,,Clear,130,2013-02-25 03:53:00
9:53 PM,30.9,23.0,72,30.29,10.0,SE,8.1,-,N/A,,Clear,130,2013-02-25 04:53:00
10:53 PM,30.9,21.9,69,30.28,10.0,SE,9.2,-,N/A,,Clear,130,2013-02-25 05:53:00
11:53 PM,30.9,21.0,67,30.25,10.0,ESE,6.9,-,N/A,,Clear,110,2013-02-25 06:53:00